Time;durP1;ratioP1;P1;durP2;ratioP2;P2;SDS_P1;SDS_P2;PMS_P1;PMS_P2;Temp;Humidity;BMP_temperature;BMP_pressure;BME280_temperature;BME280_humidity;BME280_pressure;Samples;Min_cycle;Max_cycle;Signal;HPM_P1;HPM_P2
2021/06/11 00:01:51;;;;;;;9.80;8.32;;;;;;;18.24;99.53;99908.22;6316965;22;20004;-81
2021/06/11 00:04:43;;;;;;;10.48;8.13;;;;;;;18.20;98.19;99910.13;6290399;22;20023;-82
2021/06/11 00:07:43;;;;;;;10.30;8.60;;;;;;;18.17;100.00;99912.91;6290461;22;20258;-80
2021/06/11 00:10:29;;;;;;;10.02;8.38;;;;;;;18.39;98.95;99903.88;6317416;22;20019;-80
2021/06/11 00:13:01;;;;;;;13.05;8.82;;;;;;;18.12;99.70;99903.81;6290312;22;20354;-80
2021/06/11 00:15:29;;;;;;;13.88;9.23;;;;;;;17.92;100.00;99907.59;6318798;22;20014;-81
2021/06/11 00:17:56;;;;;;;11.73;8.20;;;;;;;18.35;98.46;99903.25;6316897;22;20134;-80
2021/06/11 00:20:30;;;;;;;11.75;8.43;;;;;;;18.21;99.42;99898.09;6316987;22;20015;-80
2021/06/11 00:23:36;;;;;;;13.98;8.50;;;;;;;17.81;100.00;99901.38;6316789;22;20355;-81
2021/06/11 00:26:18;;;;;;;11.10;8.40;;;;;;;18.15;98.03;99895.91;6289619;22;20018;-81
2021/06/11 00:28:55;;;;;;;10.70;8.18;;;;;;;18.08;99.09;99897.19;6317105;22;20010;-81
2021/06/11 00:31:30;;;;;;;10.63;8.30;;;;;;;17.95;100.00;99896.25;6317035;22;20261;-81
2021/06/11 00:34:18;;;;;;;11.95;8.75;;;;;;;17.58;100.00;99896.78;6290147;22;20023;-81
2021/06/11 00:36:56;;;;;;;14.02;8.43;;;;;;;17.49;100.00;99897.31;6290411;22;20115;-82
2021/06/11 00:39:58;;;;;;;12.65;8.55;;;;;;;17.61;100.00;99889.69;6316952;22;20003;-81
2021/06/11 00:45:44;;;;;;;11.02;8.38;;;;;;;17.70;99.99;99880.63;6316502;22;20034;-81
2021/06/11 00:48:24;;;;;;;11.60;8.50;;;;;;;17.94;100.00;99881.75;6316565;22;20014;-82
2021/06/11 00:51:01;;;;;;;12.63;8.95;;;;;;;17.66;100.00;99884.28;6289190;22;20096;-82
2021/06/11 00:53:27;;;;;;;12.95;8.23;;;;;;;18.06;100.00;99886.16;6317053;22;20018;-82
2021/06/11 00:59:16;;;;;;;10.85;8.02;;;;;;;18.04;98.68;99890.59;6318765;22;20097;-82
2021/06/11 01:01:42;;;;;;;12.52;8.70;;;;;;;17.62;100.00;99895.69;6291679;22;20369;-81
2021/06/11 01:04:19;;;;;;;9.68;7.82;;;;;;;18.04;98.83;99893.97;6318950;22;20007;-81
2021/06/11 01:07:24;;;;;;;9.35;7.93;;;;;;;17.46;100.00;99889.72;6292115;22;20030;-83
2021/06/11 01:10:01;;;;;;;10.70;8.10;;;;;;;17.96;99.67;99890.22;6318953;22;20345;-84
2021/06/11 01:12:34;;;;;;;11.27;8.35;;;;;;;17.99;98.60;99898.56;6318983;22;20104;-83
2021/06/11 01:15:27;;;;;;;12.70;8.70;;;;;;;17.86;99.45;99889.09;6319593;22;20007;-81
2021/06/11 01:17:55;;;;;;;8.85;7.95;;;;;;;18.06;99.20;99891.31;6291153;22;20019;-84
2021/06/11 01:21:01;;;;;;;9.40;8.32;;;;;;;18.01;99.06;99894.16;6292155;22;20007;-83
2021/06/11 01:26:54;;;;;;;10.23;7.63;;;;;;;18.13;97.39;99892.59;6318997;22;20092;-82
2021/06/11 01:29:53;;;;;;;10.10;7.80;;;;;;;17.76;99.48;99882.84;6295131;22;20007;-84
2021/06/11 01:36:11;;;;;;;12.63;7.95;;;;;;;17.55;100.00;99889.25;6319819;22;20077;-84
2021/06/11 01:39:22;;;;;;;14.40;8.20;;;;;;;17.74;99.66;99882.94;6274723;22;20129;-82
2021/06/11 01:41:51;;;;;;;16.07;9.10;;;;;;;17.74;98.76;99888.09;6290391;22;20076;-82
2021/06/11 01:48:08;;;;;;;12.70;8.90;;;;;;;17.05;100.00;99885.22;6303468;22;20014;-81
2021/06/11 01:50:37;;;;;;;13.35;9.50;;;;;;;17.29;100.00;99880.44;6291609;22;20034;-81
2021/06/11 01:53:05;;;;;;;21.48;9.63;;;;;;;17.67;98.65;99881.63;6318255;22;20100;-80
2021/06/11 01:55:37;;;;;;;19.95;10.15;;;;;;;17.13;100.00;99885.59;6290951;22;20088;-81
2021/06/11 01:58:10;;;;;;;14.45;8.80;;;;;;;17.51;99.52;99880.84;6291833;22;20358;-82
2021/06/11 02:01:07;;;;;;;15.20;8.60;;;;;;;17.72;98.92;99884.78;6318246;22;20007;-80
2021/06/11 02:04:07;;;;;;;14.80;9.45;;;;;;;17.19;100.00;99882.66;6291494;22;20377;-81
2021/06/11 02:06:51;;;;;;;17.13;9.95;;;;;;;17.55;98.23;99886.69;6318445;22;20008;-81
2021/06/11 02:09:31;;;;;;;15.18;10.02;;;;;;;16.84;100.00;99893.25;6317792;22;20004;-81
2021/06/11 02:12:01;;;;;;;19.88;11.30;;;;;;;17.48;99.30;99886.16;6291863;22;20014;-81
2021/06/11 02:17:54;;;;;;;17.73;10.37;;;;;;;17.28;100.00;99886.47;6317701;22;20355;-81
2021/06/11 02:20:23;;;;;;;13.65;9.27;;;;;;;18.83;96.53;99881.38;6291246;22;20264;-82
2021/06/11 02:23:18;;;;;;;14.55;9.25;;;;;;;18.75;94.38;99881.03;6290761;22;20026;-82
2021/06/11 02:25:55;;;;;;;18.40;11.05;;;;;;;17.99;94.99;99890.84;6291646;22;20003;-82
2021/06/11 02:28:21;;;;;;;19.00;11.10;;;;;;;16.82;100.00;99888.22;6290474;22;20010;-83
2021/06/11 02:30:50;;;;;;;29.15;14.55;;;;;;;16.50;100.00;99886.53;6290768;22;20033;-79
2021/06/11 02:33:16;;;;;;;26.52;13.85;;;;;;;16.76;100.00;99885.97;6318004;22;20111;-80
2021/06/11 02:39:06;;;;;;;23.10;13.43;;;;;;;17.48;98.16;99891.31;6318173;22;20017;-77
2021/06/11 02:41:57;;;;;;;24.42;13.68;;;;;;;16.65;100.00;99892.59;6290409;22;20487;-79
2021/06/11 02:44:59;;;;;;;24.40;14.65;;;;;;;17.00;98.58;99902.59;6319016;22;20018;-80
2021/06/11 02:47:35;;;;;;;25.35;16.42;;;;;;;16.65;100.00;99903.72;6287663;22;20022;-78
2021/06/11 02:50:07;;;;;;;31.52;15.70;;;;;;;16.49;100.00;99895.19;6317103;22;20022;-77
2021/06/11 02:52:50;;;;;;;27.02;15.13;;;;;;;16.88;99.84;99902.44;6289054;22;20010;-75
2021/06/11 02:55:42;;;;;;;27.15;15.32;;;;;;;16.69;100.00;99920.59;6315748;22;20011;-77
2021/06/11 02:58:20;;;;;;;19.00;13.93;;;;;;;17.29;100.00;99918.97;6289859;22;20038;-77
2021/06/11 03:00:47;;;;;;;26.50;15.68;;;;;;;17.51;99.92;99924.56;6290026;22;20003;-78
2021/06/11 03:03:30;;;;;;;22.75;14.57;;;;;;;17.28;98.63;99932.72;6288977;22;20358;-80
2021/06/11 03:06:02;;;;;;;22.50;14.80;;;;;;;17.32;100.00;99929.91;6290124;22;20023;-77
2021/06/11 03:08:36;;;;;;;23.58;14.93;;;;;;;17.03;99.54;99928.13;6288908;22;20011;-80
2021/06/11 03:11:30;;;;;;;21.65;13.60;;;;;;;17.22;100.00;99915.06;6289433;22;20031;-80
2021/06/11 03:14:00;;;;;;;19.25;11.38;;;;;;;17.29;100.00;99919.78;6289717;22;20014;-76
2021/06/11 03:16:29;;;;;;;19.05;11.00;;;;;;;17.05;100.00;99925.47;6289234;22;20095;-79
2021/06/11 03:19:01;;;;;;;15.02;9.27;;;;;;;17.37;98.65;99923.69;6290310;22;20039;-81
2021/06/11 03:21:47;;;;;;;12.85;10.25;;;;;;;17.56;97.65;99914.88;6289304;22;20007;-78
2021/06/11 03:24:46;;;;;;;14.38;9.68;;;;;;;17.51;98.19;99922.00;6289352;22;20014;-81
2021/06/11 03:28:02;;;;;;;14.38;9.02;;;;;;;17.56;98.13;99921.75;6289645;22;20018;-79
2021/06/11 03:31:08;;;;;;;17.08;9.02;;;;;;;17.97;95.70;99923.56;6289515;22;20007;-81
2021/06/11 03:33:44;;;;;;;15.02;9.38;;;;;;;18.04;95.37;99929.97;6290394;22;20018;-82
2021/06/11 03:36:28;;;;;;;16.58;9.20;;;;;;;18.51;94.89;99932.31;6289347;22;20010;-85
2021/06/11 03:39:28;;;;;;;14.85;9.20;;;;;;;18.20;96.19;99930.72;6315926;22;20034;-77
2021/06/11 03:41:56;;;;;;;14.48;9.30;;;;;;;18.35;94.98;99930.72;6289513;22;20110;-79
2021/06/11 03:45:15;;;;;;;12.50;8.45;;;;;;;17.93;94.78;99928.97;6290231;22;20019;-83
2021/06/11 03:48:17;;;;;;;10.38;8.88;;;;;;;18.23;90.89;99949.47;6289603;22;20019;-82
2021/06/11 03:50:49;;;;;;;11.30;8.85;;;;;;;16.75;97.43;99951.09;6288555;22;20018;-82
2021/06/11 03:53:34;;;;;;;12.85;7.80;;;;;;;16.77;97.57;99951.00;6289669;22;20100;-79
2021/06/11 03:56:03;;;;;;;10.70;8.15;;;;;;;16.78;98.33;99950.91;6289065;22;20015;-81
2021/06/11 03:58:53;;;;;;;14.88;7.60;;;;;;;18.04;94.08;99957.47;6316497;22;20374;-78
2021/06/11 04:01:29;;;;;;;13.80;8.25;;;;;;;16.78;97.37;99961.19;6289824;22;20010;-76
2021/06/11 04:04:05;;;;;;;14.63;8.32;;;;;;;17.25;96.53;99959.41;6287887;22;20014;-75
2021/06/11 04:06:39;;;;;;;12.13;8.02;;;;;;;17.15;96.10;99954.88;6287655;22;20091;-74
2021/06/11 04:09:09;;;;;;;12.75;7.78;;;;;;;16.86;97.61;99960.75;6288127;22;20262;-74
2021/06/11 04:11:47;;;;;;;14.20;8.75;;;;;;;16.67;97.82;99963.50;6315659;22;20116;-75
2021/06/11 04:14:48;;;;;;;15.57;8.68;;;;;;;16.94;97.62;99961.19;6316196;22;20372;-74
2021/06/11 04:17:18;;;;;;;14.65;8.98;;;;;;;17.01;97.44;99957.38;6232587;22;20019;-74
2021/06/11 04:20:03;;;;;;;10.80;8.40;;;;;;;17.17;96.86;99958.19;6315424;22;20038;-74
2021/06/11 04:22:40;;;;;;;14.48;8.95;;;;;;;16.89;99.70;99961.44;6288479;22;20335;-74
2021/06/11 04:25:29;;;;;;;14.52;9.73;;;;;;;17.22;98.45;99959.59;6288128;22;20096;-74
2021/06/11 04:27:56;;;;;;;14.75;9.80;;;;;;;17.22;98.56;99957.03;6315595;22;20038;-74
2021/06/11 04:30:32;;;;;;;14.73;9.57;;;;;;;17.99;94.88;99964.63;6315294;22;20007;-74
2021/06/11 04:32:59;;;;;;;11.48;9.13;;;;;;;17.92;95.37;99960.78;6315261;22;20011;-74
2021/06/11 04:35:41;;;;;;;13.88;9.73;;;;;;;18.10;93.73;99967.41;6315631;22;20008;-74
2021/06/11 04:38:07;;;;;;;16.45;10.13;;;;;;;17.88;95.66;99967.00;6315283;22;20022;-74
2021/06/11 04:40:59;;;;;;;13.60;10.23;;;;;;;18.23;94.95;99968.34;6315641;22;20366;-74
2021/06/11 04:43:32;;;;;;;17.02;10.02;;;;;;;18.54;94.31;99978.47;6287751;22;19999;-75
2021/06/11 04:45:58;;;;;;;13.80;9.45;;;;;;;18.58;92.59;99979.94;6288405;22;20067;-75
2021/06/11 04:48:24;;;;;;;15.32;10.20;;;;;;;18.71;93.34;99973.13;6315864;22;20342;-75
2021/06/11 04:51:00;;;;;;;13.50;9.90;;;;;;;18.65;92.44;99970.09;6287921;22;20358;-75
2021/06/11 04:53:26;;;;;;;16.45;10.02;;;;;;;18.71;92.45;99982.59;6315698;22;20007;-74
2021/06/11 04:55:59;;;;;;;13.40;10.45;;;;;;;18.76;93.19;99975.41;6287780;22;20096;-74
2021/06/11 04:58:48;;;;;;;13.13;9.82;;;;;;;19.01;90.56;99981.53;6315152;22;20133;-74
2021/06/11 05:01:18;;;;;;;16.25;11.55;;;;;;;18.91;92.68;99984.78;6287706;22;20014;-74
2021/06/11 05:03:56;;;;;;;19.10;10.77;;;;;;;19.10;91.90;99987.03;6288546;22;20493;-74
2021/06/11 05:06:25;;;;;;;16.85;11.98;;;;;;;18.82;93.02;99981.03;6315086;22;20014;-74
2021/06/11 05:08:53;;;;;;;13.07;11.13;;;;;;;19.05;92.50;99979.59;6287510;22;20007;-75
2021/06/11 05:11:22;;;;;;;17.27;11.20;;;;;;;19.01;92.45;99981.53;6315241;22;20022;-74
2021/06/11 05:14:28;;;;;;;16.25;11.73;;;;;;;19.45;90.96;99985.69;6287978;22;20123;-75
2021/06/11 05:16:57;;;;;;;17.75;11.15;;;;;;;19.62;89.58;99995.72;6287921;22;20022;-74
2021/06/11 05:19:24;;;;;;;12.27;9.32;;;;;;;19.71;88.97;99990.78;6315038;22;20011;-75
2021/06/11 05:21:54;;;;;;;12.23;9.68;;;;;;;20.19;88.34;99980.75;6315228;22;20007;-74
2021/06/11 05:24:23;;;;;;;16.20;10.60;;;;;;;20.05;89.08;99989.38;6287505;22;20031;-74
2021/06/11 05:26:55;;;;;;;18.70;10.60;;;;;;;19.94;88.92;99998.78;6287199;22;20007;-76
2021/06/11 05:29:21;;;;;;;13.23;10.20;;;;;;;20.05;88.79;99999.72;6287528;22;20007;-74
2021/06/11 05:31:51;;;;;;;14.60;10.30;;;;;;;20.04;88.24;100003.25;6287816;22;20346;-74
2021/06/11 05:34:27;;;;;;;14.43;10.40;;;;;;;20.09;88.04;99995.16;6287903;22;20014;-74
2021/06/11 05:37:09;;;;;;;13.20;10.98;;;;;;;19.97;89.87;100001.97;6287265;22;20014;-75
2021/06/11 05:39:37;;;;;;;12.40;11.05;;;;;;;19.97;89.05;99995.97;6314919;22;20007;-74
2021/06/11 05:42:09;;;;;;;15.55;11.48;;;;;;;20.23;88.26;100000.28;6315186;22;20007;-74
2021/06/11 05:44:49;;;;;;;14.77;10.43;;;;;;;20.25;88.55;100001.00;6288914;22;20011;-75
2021/06/11 05:47:15;;;;;;;13.20;9.30;;;;;;;20.27;88.08;99999.97;6288877;22;20394;-75
2021/06/11 05:49:41;;;;;;;10.75;9.00;;;;;;;20.68;87.37;100000.53;6316645;22;20007;-74
2021/06/11 05:52:15;;;;;;;14.52;9.80;;;;;;;20.45;88.36;100003.06;6288830;22;20007;-74
2021/06/11 05:54:41;;;;;;;12.10;10.07;;;;;;;20.40;88.54;100012.88;6316462;22;20003;-74
2021/06/11 05:57:07;;;;;;;13.75;9.90;;;;;;;20.45;88.30;100011.63;6289582;22;20460;-74
2021/06/11 05:59:43;;;;;;;14.75;9.45;;;;;;;21.15;84.80;100007.63;6289389;22;20372;-74
2021/06/11 06:02:15;;;;;;;12.15;8.73;;;;;;;21.34;84.24;100012.28;6316936;22;19999;-74
2021/06/11 06:04:46;;;;;;;12.65;8.48;;;;;;;20.85;85.53;100011.47;6289395;22;20133;-74
2021/06/11 06:07:12;;;;;;;8.55;7.03;;;;;;;20.70;82.81;100018.53;6289490;22;20095;-75
2021/06/11 06:09:38;;;;;;;10.13;7.60;;;;;;;21.08;82.05;100008.13;6288924;22;20007;-75
2021/06/11 06:12:07;;;;;;;10.73;7.85;;;;;;;21.51;79.86;100012.72;6316705;22;20058;-74
2021/06/11 06:14:33;;;;;;;9.18;7.40;;;;;;;22.17;78.42;100006.94;6317599;22;20011;-74
2021/06/11 06:17:06;;;;;;;10.85;7.53;;;;;;;22.01;80.14;100011.63;6316330;22;20031;-75
2021/06/11 06:19:38;;;;;;;9.20;6.72;;;;;;;22.56;76.95;100010.06;6316698;22;20007;-75
2021/06/11 06:22:04;;;;;;;8.63;6.53;;;;;;;22.56;76.07;100010.84;6288809;22;20027;-75
2021/06/11 06:24:29;;;;;;;8.45;6.72;;;;;;;22.58;73.50;100008.22;6289266;22;20073;-75
2021/06/11 06:26:55;;;;;;;8.88;6.82;;;;;;;23.11;72.74;100007.44;6288637;22;20019;-72
2021/06/11 06:29:21;;;;;;;8.00;6.57;;;;;;;22.49;74.70;100012.28;6288811;22;20014;-74
2021/06/11 06:31:47;;;;;;;7.78;6.30;;;;;;;21.89;77.64;100004.75;6288758;22;20027;-72
2021/06/11 06:34:13;;;;;;;8.38;5.95;;;;;;;21.87;76.14;100006.63;6289013;22;20013;-74
2021/06/11 06:36:38;;;;;;;9.38;6.90;;;;;;;21.71;77.68;100019.03;6288737;22;20003;-75
2021/06/11 06:39:07;;;;;;;8.48;6.70;;;;;;;21.83;78.59;100017.34;6288804;22;20007;-73
2021/06/11 06:41:34;;;;;;;8.88;7.00;;;;;;;21.94;77.66;100010.44;6288950;22;20003;-74
2021/06/11 06:43:59;;;;;;;6.85;6.25;;;;;;;22.15;77.44;100014.00;6316553;22;20015;-74
2021/06/11 06:46:25;;;;;;;7.63;6.75;;;;;;;22.38;74.90;100009.69;6288470;22;20002;-75
2021/06/11 06:48:52;;;;;;;7.38;6.57;;;;;;;22.21;74.92;100010.97;6288444;22;20474;-75
2021/06/11 06:51:20;;;;;;;8.10;6.82;;;;;;;22.40;75.32;100013.81;6288846;22;20023;-75
2021/06/11 06:53:48;;;;;;;7.43;6.43;;;;;;;23.37;73.32;100016.59;6288699;22;20043;-74
2021/06/11 06:56:14;;;;;;;7.15;6.35;;;;;;;22.94;73.20;100010.50;6315951;22;20007;-71
2021/06/11 06:58:39;;;;;;;11.45;6.68;;;;;;;23.99;71.04;100008.88;6288923;22;20027;-73
2021/06/11 07:01:05;;;;;;;7.50;5.72;;;;;;;23.94;67.84;100011.03;6289030;22;20018;-72
2021/06/11 07:03:31;;;;;;;7.30;5.85;;;;;;;24.83;66.98;99998.25;6316018;22;20034;-74
2021/06/11 07:05:58;;;;;;;6.90;6.00;;;;;;;24.75;65.60;100008.50;6315996;22;20270;-74
2021/06/11 07:08:26;;;;;;;10.30;5.78;;;;;;;24.15;65.49;100009.28;6288616;22;20009;-74
2021/06/11 07:10:52;;;;;;;7.30;5.72;;;;;;;24.15;68.00;100011.88;6315805;22;20061;-72
2021/06/11 07:13:17;;;;;;;7.45;5.70;;;;;;;24.15;67.06;100004.06;6315906;22;20044;-75
2021/06/11 07:15:43;;;;;;;7.03;6.10;;;;;;;24.41;65.86;99994.06;6315747;22;20007;-74
2021/06/11 07:18:09;;;;;;;8.07;5.97;;;;;;;24.92;65.54;99994.84;6288048;22;20358;-76
2021/06/11 07:20:34;;;;;;;7.97;4.97;;;;;;;25.03;64.18;99988.72;6288632;22;20003;-75
2021/06/11 07:22:59;;;;;;;7.30;5.53;;;;;;;25.60;61.20;99989.59;6288118;22;20019;-75
2021/06/11 07:25:25;;;;;;;6.00;4.97;;;;;;;24.72;64.37;99987.94;6315610;22;20003;-73
2021/06/11 07:27:50;;;;;;;7.57;5.28;;;;;;;25.14;63.88;99988.56;6315908;22;20358;-74
2021/06/11 07:30:16;;;;;;;7.45;6.10;;;;;;;24.93;63.83;99981.72;6288283;22;20004;-75
2021/06/11 07:32:43;;;;;;;7.07;5.75;;;;;;;25.63;62.35;99980.69;6315977;22;20353;-72
2021/06/11 07:35:10;;;;;;;6.15;5.18;;;;;;;25.86;62.89;99982.03;6288498;22;20054;-72
2021/06/11 07:37:36;;;;;;;6.75;6.13;;;;;;;25.42;64.06;99982.59;6315638;22;20003;-73
2021/06/11 07:40:06;;;;;;;6.30;5.70;;;;;;;24.58;66.13;99983.88;6288328;22;20039;-72
2021/06/11 07:42:32;;;;;;;8.13;5.32;;;;;;;25.64;62.30;99979.72;6288123;22;20007;-73
2021/06/11 07:44:57;;;;;;;11.32;5.70;;;;;;;25.04;63.56;99985.16;6316693;22;20015;-75
2021/06/11 07:47:23;;;;;;;9.30;5.85;;;;;;;25.87;62.28;99980.25;6315296;22;20042;-75
2021/06/11 07:49:48;;;;;;;8.48;5.32;;;;;;;25.78;62.67;99976.69;6315566;22;20011;-74
2021/06/11 07:52:14;;;;;;;7.55;5.20;;;;;;;26.12;61.51;99977.06;6287937;22;20007;-73
2021/06/11 07:54:39;;;;;;;8.70;5.03;;;;;;;25.67;61.01;99975.06;6288009;22;20027;-72
2021/06/11 07:57:05;;;;;;;7.22;5.18;;;;;;;25.88;59.84;99982.72;6315216;22;20470;-72
2021/06/11 07:59:30;;;;;;;7.15;4.90;;;;;;;26.43;58.51;99978.47;6288261;22;20015;-74
2021/06/11 08:01:56;;;;;;;5.28;4.78;;;;;;;26.79;58.09;99980.25;6315441;22;20027;-75
2021/06/11 08:04:21;;;;;;;5.25;4.75;;;;;;;26.51;57.33;99974.19;6315087;22;20096;-72
2021/06/11 08:06:47;;;;;;;9.45;4.75;;;;;;;26.46;57.74;99980.78;6315128;22;20301;-72
2021/06/11 08:09:14;;;;;;;6.57;5.13;;;;;;;27.12;56.62;99984.84;6288059;22;20354;-72
2021/06/11 08:11:39;;;;;;;7.35;5.47;;;;;;;27.18;57.66;99989.47;6315277;22;20058;-72
2021/06/11 08:14:05;;;;;;;9.88;5.45;;;;;;;26.47;61.61;99983.25;6315562;22;20011;-74
2021/06/11 08:16:30;;;;;;;7.40;5.20;;;;;;;26.69;60.80;99982.06;6315425;22;20038;-74
2021/06/11 08:18:55;;;;;;;6.32;5.70;;;;;;;26.39;61.07;99983.16;6315444;22;20100;-72
2021/06/11 08:21:21;;;;;;;6.20;5.55;;;;;;;26.95;61.17;99988.25;6315135;22;20023;-74
2021/06/11 08:23:48;;;;;;;6.22;5.65;;;;;;;27.24;59.85;99977.59;6315401;22;20100;-72
2021/06/11 08:26:14;;;;;;;7.80;5.40;;;;;;;27.49;58.19;99981.31;6287738;22;20039;-72
2021/06/11 08:28:39;;;;;;;6.22;5.20;;;;;;;26.79;59.30;99977.63;6315197;22;20022;-73
2021/06/11 08:31:06;;;;;;;6.18;5.05;;;;;;;26.59;59.47;99976.88;6288217;22;20014;-75
2021/06/11 08:33:32;;;;;;;6.53;5.75;;;;;;;26.24;60.36;99963.72;6287764;22;20058;-72
2021/06/11 08:35:57;;;;;;;6.75;5.38;;;;;;;25.92;60.54;99965.00;6314903;22;20015;-74
2021/06/11 08:38:23;;;;;;;5.47;4.97;;;;;;;26.99;58.60;99965.28;6314920;22;20386;-74
2021/06/11 08:40:49;;;;;;;7.78;4.80;;;;;;;27.99;55.10;99951.78;6287237;22;20015;-72
2021/06/11 08:43:15;;;;;;;7.25;4.53;;;;;;;26.60;56.39;99956.84;6315073;22;20072;-74
2021/06/11 08:45:42;;;;;;;4.80;4.40;;;;;;;26.83;56.83;99952.88;6287224;22;20393;-74
2021/06/11 08:48:08;;;;;;;7.68;5.32;;;;;;;27.72;56.22;99953.72;6287259;22;20409;-75
2021/06/11 08:50:35;;;;;;;9.65;4.97;;;;;;;27.29;56.12;99960.53;6315000;22;20011;-73
2021/06/11 08:53:03;;;;;;;4.97;4.57;;;;;;;27.50;54.77;99962.84;6314949;22;20111;-72
2021/06/11 08:55:29;;;;;;;6.55;4.60;;;;;;;26.18;59.02;99953.03;6287575;22;20069;-72
2021/06/11 08:57:55;;;;;;;4.97;4.38;;;;;;;26.80;57.49;99953.16;6288188;22;20084;-73
2021/06/11 09:00:21;;;;;;;7.90;5.30;;;;;;;27.11;55.66;99961.50;6315022;22;20007;-73
2021/06/11 09:03:24;;;;;;;10.52;4.65;;;;;;;26.50;57.20;99956.06;6287815;22;20015;-73
2021/06/11 09:06:01;;;;;;;6.32;4.97;;;;;;;26.04;60.00;99949.06;6315037;22;20007;-73
2021/06/11 09:08:28;;;;;;;9.27;5.25;;;;;;;26.07;59.64;99938.38;6287739;22;20014;-73
2021/06/11 09:11:19;;;;;;;8.15;5.20;;;;;;;25.98;60.22;99946.19;6287250;22;20003;-73
2021/06/11 09:13:48;;;;;;;7.70;4.60;;;;;;;26.10;59.46;99938.09;6287842;22;20014;-75
2021/06/11 09:16:17;;;;;;;6.55;5.00;;;;;;;25.76;59.74;99939.53;6287381;22;20096;-75
2021/06/11 09:18:44;;;;;;;6.75;4.78;;;;;;;25.79;59.27;99934.84;6315494;22;20023;-75
2021/06/11 09:21:41;;;;;;;5.40;4.90;;;;;;;25.52;59.69;99942.59;6289450;22;20042;-73
2021/06/11 09:26:35;;;;;;;5.53;4.95;;;;;;;25.87;58.47;99936.75;6317315;22;20007;-75
2021/06/11 09:29:21;;;;;;;6.65;5.18;;;;;;;25.69;59.10;99934.06;6316883;22;20061;-75
2021/06/11 09:31:47;;;;;;;5.35;4.85;;;;;;;26.60;58.47;99931.56;6289213;22;20035;-75
2021/06/11 09:34:25;;;;;;;9.18;5.45;;;;;;;27.06;58.27;99928.00;6289680;22;20104;-74
2021/06/11 09:37:15;;;;;;;6.75;5.32;;;;;;;27.62;54.66;99932.06;6316565;22;20388;-74
2021/06/11 09:39:51;;;;;;;9.18;5.15;;;;;;;28.05;55.43;99935.50;6289469;22;20011;-73
2021/06/11 09:42:21;;;;;;;5.82;3.90;;;;;;;27.29;51.49;99934.41;6316813;22;20010;-73
2021/06/11 09:45:37;;;;;;;5.20;3.83;;;;;;;27.27;50.38;99931.13;6290348;22;20026;-76
2021/06/11 09:48:29;;;;;;;6.65;3.75;;;;;;;27.35;50.06;99925.19;6317952;22;20023;-79
2021/06/11 09:51:22;;;;;;;4.32;3.85;;;;;;;26.38;53.58;99931.13;6290542;22;20084;-77
2021/06/11 09:53:53;;;;;;;6.93;3.03;;;;;;;25.61;54.93;99922.72;6317402;22;20011;-76
2021/06/11 09:56:28;;;;;;;3.75;3.30;;;;;;;25.41;55.10;99927.13;6289668;22;20086;-73
2021/06/11 10:02:18;;;;;;;4.22;3.33;;;;;;;25.40;53.90;99938.47;6317468;22;20010;-76
2021/06/11 10:05:26;;;;;;;8.82;3.80;;;;;;;25.41;55.46;99939.31;6289847;22;20011;-76
2021/06/11 10:07:52;;;;;;;10.10;3.67;;;;;;;24.35;61.37;99940.84;6317294;22;20004;-76
2021/06/11 10:10:19;;;;;;;6.03;4.15;;;;;;;24.63;63.80;99940.13;6289884;22;20015;-76
2021/06/11 10:12:50;;;;;;;7.93;4.00;;;;;;;23.61;68.68;99941.91;6317188;22;19999;-76
2021/06/11 10:15:19;;;;;;;11.25;4.00;;;;;;;24.12;70.03;99938.56;6290063;22;20010;-76
2021/06/11 10:17:45;;;;;;;5.28;4.00;;;;;;;23.27;72.44;99938.59;6290247;22;20029;-76
2021/06/11 10:20:13;;;;;;;7.05;4.43;;;;;;;23.60;71.75;99932.47;6290024;22;20007;-77
2021/06/11 10:22:43;;;;;;;7.63;4.20;;;;;;;23.84;71.27;99927.03;6290035;22;20010;-76
2021/06/11 10:25:41;;;;;;;5.95;3.78;;;;;;;23.81;67.15;99916.91;6290574;22;20027;-76
2021/06/11 10:28:17;;;;;;;8.52;3.38;;;;;;;24.21;65.84;99919.56;6290490;22;20007;-76
2021/06/11 10:34:04;;;;;;;5.65;3.03;;;;;;;24.38;63.86;99927.59;6318000;22;20014;-76
2021/06/11 10:39:51;;;;;;;4.03;3.00;;;;;;;23.72;67.21;99939.25;6317868;22;20018;-76
2021/06/11 10:42:30;;;;;;;3.42;2.90;;;;;;;23.43;69.37;99948.63;6317130;22;20474;-76
2021/06/11 10:45:01;;;;;;;4.35;2.70;;;;;;;23.36;68.96;99944.03;6317705;22;20215;-76
2021/06/11 10:47:28;;;;;;;5.60;2.57;;;;;;;23.35;68.31;99950.19;6317029;22;20011;-76
2021/06/11 10:50:32;;;;;;;3.50;3.20;;;;;;;23.12;70.81;99950.22;6317310;22;20683;-76
2021/06/11 10:53:26;;;;;;;7.72;3.33;;;;;;;23.27;70.31;99961.97;6290267;22;20242;-76
2021/06/11 10:56:18;;;;;;;7.13;3.42;;;;;;;22.64;73.23;99966.25;6316919;22;20014;-76
2021/06/11 10:58:45;;;;;;;4.13;3.20;;;;;;;22.91;72.06;99958.91;6317043;22;20398;-76
2021/06/11 11:02:04;;;;;;;4.10;3.70;;;;;;;23.12;71.73;99960.59;6289477;22;20014;-76
2021/06/11 11:04:33;;;;;;;7.28;3.72;;;;;;;23.19;71.36;99959.16;6248366;22;20017;-77
2021/06/11 11:07:23;;;;;;;4.43;3.28;;;;;;;23.13;69.18;99958.84;6316784;22;20038;-76
2021/06/11 11:10:08;;;;;;;4.80;3.20;;;;;;;22.80;70.78;99954.53;6289408;22;20014;-76
2021/06/11 11:13:11;;;;;;;5.15;3.42;;;;;;;22.58;71.44;99956.38;6289071;22;20022;-76
2021/06/11 11:15:38;;;;;;;5.65;3.13;;;;;;;22.43;72.07;99953.97;6235939;22;20055;-76
2021/06/11 11:18:42;;;;;;;3.35;3.03;;;;;;;22.38;70.68;99945.72;6317125;22;20011;-76
2021/06/11 11:28:18;;;;;;;3.90;3.20;;;;;;;22.03;72.41;99941.59;6317689;22;20110;-76
2021/06/11 11:31:15;;;;;;;3.80;3.35;;;;;;;21.96;73.71;99932.63;6316923;22;20156;-76
2021/06/11 11:33:59;;;;;;;4.18;3.63;;;;;;;21.99;74.21;99934.97;6316594;22;20370;-76
2021/06/11 11:36:36;;;;;;;4.45;3.30;;;;;;;22.04;73.33;99933.72;6316615;22;20007;-75
2021/06/11 11:39:05;;;;;;;5.95;3.63;;;;;;;22.06;72.96;99926.66;6316468;22;20011;-76
2021/06/11 11:41:38;;;;;;;4.32;3.75;;;;;;;21.94;72.49;99916.41;6316671;22;20047;-76
2021/06/11 11:44:12;;;;;;;5.65;3.97;;;;;;;22.13;74.78;99919.22;6316807;22;20015;-76
2021/06/11 11:46:38;;;;;;;8.40;4.25;;;;;;;21.47;80.77;99920.72;6284213;22;20022;-75
2021/06/11 11:49:12;;;;;;;6.28;4.18;;;;;;;21.19;82.50;99922.88;6315945;22;20007;-75
2021/06/11 11:52:06;;;;;;;5.82;4.32;;;;;;;21.29;86.34;99931.63;6315828;22;20063;-75
2021/06/11 11:54:57;;;;;;;5.05;4.13;;;;;;;20.85;87.36;99941.69;6315656;22;20046;-75
2021/06/11 11:57:22;;;;;;;5.57;4.03;;;;;;;20.78;86.64;99961.97;6315513;22;20007;-75
2021/06/11 11:59:56;;;;;;;4.30;3.90;;;;;;;21.02;88.85;99967.19;6315858;22;20099;-75
2021/06/11 12:02:36;;;;;;;4.45;3.85;;;;;;;20.99;88.23;99972.56;6315991;22;20103;-75
2021/06/11 12:05:06;;;;;;;4.95;3.47;;;;;;;20.69;87.30;99980.72;6315777;22;20026;-75
2021/06/11 12:07:44;;;;;;;4.63;3.70;;;;;;;20.88;86.53;99978.47;6315687;22;20087;-75
2021/06/11 12:10:46;;;;;;;4.07;3.50;;;;;;;21.03;85.97;99990.38;6288663;22;20015;-75
2021/06/11 12:13:11;;;;;;;3.92;3.50;;;;;;;21.00;87.35;99993.13;6288265;22;20361;-74
2021/06/11 12:16:10;;;;;;;6.55;3.67;;;;;;;20.97;84.74;100015.78;6317119;22;20014;-74
2021/06/11 12:18:58;;;;;;;5.30;3.10;;;;;;;20.73;83.66;100029.50;6288063;22;20235;-74
2021/06/11 12:21:26;;;;;;;7.70;3.97;;;;;;;20.64;87.29;100037.03;6287940;22;20007;-74
2021/06/11 12:23:58;;;;;;;4.18;3.60;;;;;;;20.77;83.63;100035.28;6315386;22;20042;-74
2021/06/11 12:26:39;;;;;;;5.22;3.50;;;;;;;20.87;83.37;100035.47;6288486;22;20011;-74
2021/06/11 12:29:05;;;;;;;3.50;3.10;;;;;;;20.97;80.96;100041.66;6288139;22;20100;-74
2021/06/11 12:31:33;;;;;;;4.55;3.80;;;;;;;21.09;81.25;100033.06;6315454;22;20027;-74
2021/06/11 12:34:32;;;;;;;6.30;3.70;;;;;;;20.99;82.28;100034.63;6315588;22;20004;-74
2021/06/11 12:37:04;;;;;;;4.00;3.60;;;;;;;20.94;83.56;100032.34;6315637;22;20011;-75
2021/06/11 12:40:07;;;;;;;8.82;4.03;;;;;;;21.05;85.59;100049.72;6288273;22;20133;-75
2021/06/11 12:45:54;;;;;;;7.32;4.70;;;;;;;20.10;93.59;100066.53;6316018;22;20458;-75
2021/06/11 12:48:19;;;;;;;7.47;4.63;;;;;;;19.98;94.69;100060.44;6315600;22;20011;-75
2021/06/11 12:50:52;;;;;;;8.90;5.70;;;;;;;19.99;96.20;100072.41;6288234;22;20011;-75
2021/06/11 12:53:25;;;;;;;7.10;4.60;;;;;;;19.71;96.17;100073.34;6316030;22;20011;-74